Time;durP1;ratioP1;P1;durP2;ratioP2;P2;SDS_P1;SDS_P2;PMS_P1;PMS_P2;Temp;Humidity;BMP_temperature;BMP_pressure;BME280_temperature;BME280_humidity;BME280_pressure;Samples;Min_cycle;Max_cycle;Signal;HPM_P1;HPM_P2
2022/01/26 00:06:31;;;;;;;26.80;12.27;;;;;;;-8.59;100.00;145547.91;1654753;85;21833;-62
2022/01/26 00:08:58;;;;;;;28.70;12.23;;;;;;;-8.58;100.00;145549.16;1630585;86;21094;-61
2022/01/26 00:11:27;;;;;;;30.27;12.67;;;;;;;-8.57;100.00;145551.70;1705997;82;21064;-65
2022/01/26 00:13:54;;;;;;;31.10;13.77;;;;;;;-8.53;100.00;145561.91;1712441;81;21720;-58
2022/01/26 00:16:35;;;;;;;29.93;12.00;;;;;;;-8.52;100.00;145564.47;1700326;82;21072;-60
2022/01/26 00:18:59;;;;;;;;;;;;;;;-8.48;100.00;145574.69;1708423;81;21617;-57
2022/01/26 00:21:29;;;;;;;28.83;11.47;;;;;;;-8.45;100.00;145581.03;1708084;83;21000;-57
2022/01/26 00:26:29;;;;;;;27.40;11.43;;;;;;;-8.46;100.00;145578.48;1698129;83;21549;-60
2022/01/26 00:29:08;;;;;;;31.10;12.53;;;;;;;-8.46;100.00;145579.78;1709117;83;21392;-60
2022/01/26 00:38:33;;;;;;;;;;;;;;;-8.47;100.00;145577.23;1701605;81;21061;-58
2022/01/26 00:39:31;;;;;;;28.50;12.20;;;;;;;-8.42;100.00;145590.00;1709290;83;21531;-57
2022/01/26 00:41:59;;;;;;;36.97;14.87;;;;;;;-8.42;100.00;145590.00;1711427;83;21550;-57
2022/01/26 00:44:33;;;;;;;34.30;14.73;;;;;;;-8.40;100.00;145593.80;1703112;82;21135;-57
2022/01/26 00:46:54;;;;;;;30.80;14.17;;;;;;;-8.40;100.00;145595.09;1709875;83;21060;-60
2022/01/26 00:49:21;;;;;;;40.30;16.07;;;;;;;-8.44;100.00;145584.89;1724213;81;21052;-59
2022/01/26 00:51:48;;;;;;;33.73;13.77;;;;;;;-8.45;100.00;145582.34;1703930;82;21363;-58
2022/01/26 00:54:15;;;;;;;32.63;13.47;;;;;;;-8.45;100.00;145582.34;1702553;83;21589;-56
2022/01/26 00:56:41;;;;;;;32.90;13.70;;;;;;;-8.44;100.00;145583.59;1703529;83;21485;-60
2022/01/26 00:59:08;;;;;;;32.93;12.17;;;;;;;-8.42;100.00;145590.00;1702012;83;21183;-60
2022/01/26 01:01:35;;;;;;;30.40;12.63;;;;;;;-8.42;100.00;145590.00;1705158;83;21073;-59
2022/01/26 01:04:02;;;;;;;28.13;13.03;;;;;;;-8.42;100.00;145590.00;1708594;83;21056;-63
2022/01/26 01:06:35;;;;;;;29.43;13.10;;;;;;;-8.43;100.00;145587.44;1713607;80;21049;-61
2022/01/26 01:08:58;;;;;;;29.60;12.83;;;;;;;-8.43;100.00;145586.14;1708952;82;21506;-60
2022/01/26 01:11:26;;;;;;;31.80;13.03;;;;;;;-8.41;100.00;145592.55;1705294;83;22231;-60
2022/01/26 01:13:54;;;;;;;27.40;12.27;;;;;;;-8.41;100.00;145592.55;1703924;83;21501;-61
2022/01/26 01:16:22;;;;;;;35.23;13.70;;;;;;;-8.38;100.00;145600.20;1705278;81;21045;-60
2022/01/26 01:19:07;;;;;;;28.40;12.70;;;;;;;-8.34;100.00;145610.42;1706496;83;21568;-58
2022/01/26 01:24:25;;;;;;;;;;;;;;;-8.23;100.00;145636.00;1709812;81;21035;-59
2022/01/26 01:30:09;;;;;;;33.23;13.77;;;;;;;-8.17;100.00;145651.31;1677127;85;22243;-56
2022/01/26 01:31:46;;;;;;;32.07;13.40;;;;;;;-8.19;100.00;145646.22;1685105;83;21466;-57
2022/01/26 01:34:13;;;;;;;33.20;13.13;;;;;;;-8.20;100.00;145643.66;1669845;84;21117;-58
2022/01/26 01:36:43;;;;;;;34.67;13.73;;;;;;;-8.20;100.00;145643.66;1674095;84;21358;-60
2022/01/26 01:39:09;;;;;;;29.73;12.80;;;;;;;-8.19;100.00;145646.22;1678543;83;21639;-60
2022/01/26 01:41:40;;;;;;;31.43;13.37;;;;;;;-8.15;100.00;145656.42;1709578;82;21083;-59
2022/01/26 01:44:07;;;;;;;29.30;12.90;;;;;;;-8.11;100.00;145666.64;1694456;83;21041;-59
2022/01/26 01:46:34;;;;;;;27.13;12.73;;;;;;;-8.04;100.00;145682.00;1703887;83;21023;-58
2022/01/26 01:49:01;;;;;;;27.57;12.63;;;;;;;-7.98;100.00;145697.34;1701282;83;21301;-59
2022/01/26 01:51:33;;;;;;;31.63;13.57;;;;;;;-7.93;100.00;145710.09;1689438;83;21049;-60
2022/01/26 01:53:57;;;;;;;30.33;13.37;;;;;;;-7.86;100.00;145726.72;1687883;83;21069;-60
2022/01/26 01:56:26;;;;;;;29.73;13.57;;;;;;;-7.79;100.00;145745.91;1676244;82;21441;-57
2022/01/26 01:58:54;;;;;;;27.33;13.07;;;;;;;-7.73;100.00;145758.69;1698921;82;21134;-58
2022/01/26 02:01:21;;;;;;;30.50;13.73;;;;;;;-7.69;100.00;145768.91;1685681;85;21577;-57
2022/01/26 02:03:48;;;;;;;29.07;12.57;;;;;;;-7.62;100.00;145788.08;1715491;82;21036;-57
2022/01/26 02:06:14;;;;;;;26.50;13.37;;;;;;;-7.57;100.00;145799.59;1713662;82;21056;-57
2022/01/26 02:08:41;;;;;;;33.73;13.93;;;;;;;-7.56;100.00;145802.16;1713135;83;21063;-57
2022/01/26 02:11:12;;;;;;;30.57;14.23;;;;;;;-7.53;100.00;145808.52;1682230;84;21602;-60
2022/01/26 02:14:28;;;;;;;30.13;13.80;;;;;;;-7.48;100.00;145822.59;1684507;84;21063;-57
2022/01/26 02:16:16;;;;;;;34.50;15.03;;;;;;;-7.41;100.00;145839.22;1680674;82;21092;-57
2022/01/26 02:54:02;;;;;;;38.53;15.43;;;;;;;-6.50;100.00;146063.13;1674219;85;21479;-57
2022/01/26 02:56:38;;;;;;;36.57;15.07;;;;;;;-6.47;100.00;145375.78;1690388;84;21040;-60
2022/01/26 03:04:04;;;;;;;35.70;15.93;;;;;;;-6.33;100.00;137997.03;1714152;81;21578;-59
2022/01/26 03:06:30;;;;;;;35.87;15.10;;;;;;;-6.28;100.00;135476.87;1705753;82;21573;-60
2022/01/26 03:08:58;;;;;;;32.83;14.40;;;;;;;-6.28;100.00;136319.19;1713161;82;21592;-60
2022/01/26 03:11:21;;;;;;;33.77;16.47;;;;;;;-6.29;100.00;138848.39;1719916;83;21457;-60
2022/01/26 03:13:54;;;;;;;33.10;15.30;;;;;;;-6.26;100.00;138384.81;1723512;83;21032;-58
2022/01/26 03:16:32;;;;;;;35.30;15.37;;;;;;;-6.25;100.00;140892.75;1722462;83;21446;-60
2022/01/26 03:21:41;;;;;;;35.83;16.50;;;;;;;-6.14;100.00;136520.20;1687217;83;21123;-57
2022/01/26 03:34:35;;;;;;;36.98;15.68;;;;;;;-5.92;100.00;120065.11;1679657;84;21523;-61
2022/01/26 03:37:07;;;;;;;31.70;14.30;;;;;;;-5.90;100.00;118222.36;1693201;83;21031;-58
2022/01/26 03:39:40;;;;;;;34.40;15.50;;;;;;;-5.90;100.00;118557.23;1738171;81;21052;-58
2022/01/26 03:42:13;;;;;;;32.17;15.07;;;;;;;-5.91;100.00;118723.13;1721925;82;21145;-57
2022/01/26 03:44:36;;;;;;;34.37;15.47;;;;;;;-5.95;100.00;120564.00;1722229;83;21068;-58
2022/01/26 03:47:04;;;;;;;35.67;15.23;;;;;;;-5.98;100.00;123415.59;1720395;81;21015;-58
2022/01/26 03:49:31;;;;;;;32.37;14.23;;;;;;;-5.96;100.00;123923.47;1718477;83;21413;-60
2022/01/26 03:51:57;;;;;;;35.13;15.37;;;;;;;-5.99;100.00;126272.59;1714105;82;21414;-60
2022/01/26 03:54:24;;;;;;;32.97;14.67;;;;;;;-5.96;100.00;125606.00;1715125;83;21521;-58
2022/01/26 03:56:51;;;;;;;30.60;14.13;;;;;;;-6.03;100.00;129969.56;1747817;81;21508;-57
2022/01/26 03:59:17;;;;;;;32.33;14.70;;;;;;;-6.06;100.00;134683.16;1743159;81;21103;-57
2022/01/26 04:01:44;;;;;;;31.57;14.07;;;;;;;-6.03;100.00;133339.69;1717037;81;21472;-60
2022/01/26 04:04:10;;;;;;;31.97;14.87;;;;;;;-6.01;100.00;131996.56;1718206;81;21076;-61
2022/01/26 04:06:38;;;;;;;31.77;13.77;;;;;;;-5.97;100.00;130319.08;1721616;83;21194;-60
2022/01/26 04:09:07;;;;;;;34.33;14.70;;;;;;;-5.93;100.00;128474.90;1684769;84;21090;-57
2022/01/26 04:11:42;;;;;;;36.33;15.40;;;;;;;-5.94;100.00;130831.53;1690818;83;21542;-58
2022/01/26 04:14:12;;;;;;;31.43;14.83;;;;;;;-5.97;100.00;135040.64;1681034;83;21094;-58
2022/01/26 04:16:40;;;;;;;37.33;16.67;;;;;;;-5.98;100.00;136557.23;1693963;83;21048;-60
2022/01/26 04:19:09;;;;;;;34.83;16.10;;;;;;;-5.96;100.00;135549.28;1713948;82;21537;-61
2022/01/26 04:21:52;;;;;;;38.97;16.30;;;;;;;-5.92;100.00;131847.58;1715466;81;21097;-60
2022/01/26 04:24:29;;;;;;;38.17;16.73;;;;;;;-5.86;100.00;127311.64;1714374;83;21100;-59
2022/01/26 04:29:25;;;;;;;38.07;16.27;;;;;;;-5.90;100.00;128482.80;1683554;83;21076;-59
2022/01/26 04:31:47;;;;;;;37.33;15.23;;;;;;;-5.86;100.00;127480.05;1693261;83;21489;-58
2022/01/26 04:34:13;;;;;;;35.33;15.77;;;;;;;-5.80;100.00;124126.53;1723059;83;21364;-58
2022/01/26 04:36:47;;;;;;;39.00;16.27;;;;;;;-5.81;100.00;124292.63;1714730;82;20993;-60
2022/01/26 04:39:16;;;;;;;36.90;16.53;;;;;;;-5.81;100.00;125637.94;1721173;82;20994;-61
2022/01/26 04:41:46;;;;;;;38.80;17.53;;;;;;;-5.79;100.00;124801.85;1713978;83;21005;-58
2022/01/26 04:44:18;;;;;;;36.53;16.03;;;;;;;-5.79;100.00;124633.55;1712700;82;21219;-59
2022/01/26 04:46:38;;;;;;;35.47;16.50;;;;;;;-5.83;100.00;127317.23;1720629;81;21035;-57
2022/01/26 04:49:05;;;;;;;38.03;16.73;;;;;;;-5.88;100.00;131519.61;1713540;82;21044;-57
2022/01/26 04:51:32;;;;;;;37.30;16.90;;;;;;;-5.88;100.00;131688.22;1713540;83;21045;-58
2022/01/26 04:53:59;;;;;;;37.57;16.80;;;;;;;-5.89;100.00;131685.91;1716079;82;21441;-60
2022/01/26 04:56:28;;;;;;;43.20;16.50;;;;;;;-5.94;100.00;134372.81;1715742;83;21221;-60
2022/01/26 04:58:55;;;;;;;36.53;16.30;;;;;;;-5.98;100.00;136558.41;1720891;83;20988;-60
2022/01/26 05:01:22;;;;;;;34.80;16.33;;;;;;;-5.98;100.00;137570.23;1716585;82;21108;-58
2022/01/26 05:03:48;;;;;;;38.57;18.53;;;;;;;-6.02;100.00;139510.81;1728817;81;21539;-58
2022/01/26 05:06:16;;;;;;;36.90;16.97;;;;;;;-5.99;100.00;138750.00;1727546;81;21053;-58
2022/01/26 05:08:43;;;;;;;40.57;17.93;;;;;;;-6.00;100.00;138578.67;1717151;82;21379;-60
2022/01/26 05:11:15;;;;;;;41.03;17.83;;;;;;;-6.00;100.00;139028.66;1717244;82;21091;-60
2022/01/26 05:13:39;;;;;;;41.03;17.63;;;;;;;-5.97;100.00;136053.22;1717387;82;20997;-57
2022/01/26 05:16:08;;;;;;;38.07;17.97;;;;;;;-5.93;100.00;132013.88;1718909;83;21048;-58
2022/01/26 05:18:36;;;;;;;43.97;18.60;;;;;;;-5.93;100.00;130496.73;1717572;82;21103;-58
2022/01/26 05:21:02;;;;;;;43.37;18.03;;;;;;;-5.94;100.00;130158.57;1732911;81;21095;-61
2022/01/26 05:23:31;;;;;;;37.07;17.53;;;;;;;-5.93;100.00;129485.67;1737277;81;21064;-57
2022/01/26 05:25:57;;;;;;;41.17;18.50;;;;;;;-5.97;100.00;131667.45;1687926;84;21065;-57
2022/01/26 05:28:24;;;;;;;38.27;17.97;;;;;;;-5.98;100.00;133015.16;1687583;84;21046;-60
2022/01/26 05:30:50;;;;;;;39.87;17.83;;;;;;;-5.93;100.00;130159.69;1689661;84;21526;-60
2022/01/26 05:33:19;;;;;;;40.87;17.83;;;;;;;-5.87;100.00;125794.13;1688225;84;21544;-60
2022/01/26 05:35:46;;;;;;;41.77;18.83;;;;;;;-5.86;100.00;125290.31;1682039;84;21017;-59
2022/01/26 05:38:13;;;;;;;42.33;18.07;;;;;;;-5.82;100.00;123617.42;1709447;83;21056;-60
2022/01/26 05:40:40;;;;;;;40.33;18.03;;;;;;;-5.77;100.00;120431.84;1738567;81;21474;-59
2022/01/26 05:43:07;;;;;;;42.73;18.13;;;;;;;-5.75;100.00;119427.58;1717921;82;21058;-59
2022/01/26 05:45:37;;;;;;;37.33;17.40;;;;;;;-5.72;100.00;118088.58;1691136;83;21115;-58
2022/01/26 05:48:04;;;;;;;43.47;18.77;;;;;;;-5.71;100.00;117419.76;1723298;83;21047;-58
2022/01/26 05:50:33;;;;;;;43.67;19.77;;;;;;;-5.66;100.00;115414.80;1723092;81;21091;-60
2022/01/26 05:53:00;;;;;;;41.40;19.00;;;;;;;-5.61;100.00;111564.30;1723964;83;21056;-60
2022/01/26 05:55:27;;;;;;;43.07;18.57;;;;;;;-5.56;100.00;108053.48;1731386;81;21123;-60
2022/01/26 05:57:53;;;;;;;41.93;20.10;;;;;;;-5.48;100.00;104718.53;1717234;83;21474;-58
2022/01/26 06:00:20;;;;;;;44.60;18.93;;;;;;;-5.45;100.00;103383.95;1720013;83;21561;-58
2022/01/26 06:02:47;;;;;;;43.27;19.83;;;;;;;-5.40;100.00;101719.59;1713385;83;21041;-57
2022/01/26 06:05:13;;;;;;;41.83;19.90;;;;;;;-5.35;100.00;99219.69;1711912;83;21613;-58
2022/01/26 06:07:40;;;;;;;45.10;19.23;;;;;;;-5.27;100.00;95388.90;1715576;82;21036;-58
2022/01/26 06:10:07;;;;;;;41.33;19.30;;;;;;;-5.22;100.00;91891.06;1716066;82;21097;-63
2022/01/26 06:12:34;;;;;;;37.73;18.00;;;;;;;-5.16;100.00;89397.47;1707228;82;21098;-57
2022/01/26 06:15:03;;;;;;;42.43;19.70;;;;;;;-5.18;100.00;90229.08;1716584;82;21605;-58
2022/01/26 06:17:31;;;;;;;42.57;18.83;;;;;;;-5.18;100.00;90895.56;1714766;83;21108;-58
2022/01/26 06:19:58;;;;;;;47.83;20.33;;;;;;;-5.12;100.00;89403.01;1711926;82;21068;-58
2022/01/26 06:22:24;;;;;;;42.07;19.10;;;;;;;-5.06;100.00;86411.35;1676795;85;21127;-60
2022/01/26 06:24:54;;;;;;;41.28;18.70;;;;;;;-5.01;100.00;84086.37;1651197;85;21140;-60
2022/01/26 06:27:20;;;;;;;41.70;19.70;;;;;;;-4.96;100.00;82595.02;1673393;85;21066;-58
2022/01/26 06:29:46;;;;;;;42.45;19.55;;;;;;;-4.90;100.00;80772.58;1668822;85;21118;-60
2022/01/26 06:32:14;;;;;;;45.83;19.80;;;;;;;-4.83;100.00;77620.14;1651240;85;21670;-60
2022/01/26 06:34:41;;;;;;;48.48;20.30;;;;;;;-4.75;100.00;75137.34;1664068;83;21555;-61
2022/01/26 06:37:07;;;;;;;45.98;19.77;;;;;;;-4.69;100.00;72984.62;1683773;83;21513;-61
2022/01/26 06:39:34;;;;;;;42.25;18.48;;;;;;;-4.58;100.00;70175.11;1730907;82;21080;-60
2022/01/26 06:42:03;;;;;;;50.40;21.50;;;;;;;-4.48;100.00;66868.70;1707331;82;21064;-57
2022/01/26 06:44:36;;;;;;;62.47;25.63;;;;;;;-4.37;100.00;63399.77;1723850;82;21543;-57
2022/01/26 06:49:37;;;;;;;45.70;21.13;;;;;;;-4.24;100.00;60064.41;1713207;82;21583;-61
2022/01/26 06:52:05;;;;;;;50.05;20.75;;;;;;;-4.23;100.00;60072.71;1711131;82;21062;-61
2022/01/26 06:54:32;;;;;;;55.25;22.73;;;;;;;-4.19;100.00;59844.14;1711231;82;21530;-61
2022/01/26 06:56:59;;;;;;;54.53;22.77;;;;;;;-4.10;100.00;57985.32;1702990;82;21132;-60
2022/01/26 06:59:26;;;;;;;44.98;19.70;;;;;;;-3.99;100.00;54828.76;1710347;82;21550;-56
2022/01/26 07:01:53;;;;;;;45.05;20.52;;;;;;;-3.88;100.00;51367.17;1711367;82;21514;-58
2022/01/26 07:04:21;;;;;;;42.08;19.27;;;;;;;-3.80;100.00;48730.98;1708655;82;21081;-58
2022/01/26 07:06:52;;;;;;;47.62;20.17;;;;;;;-3.69;100.00;46097.79;1705998;81;21150;-58
2022/01/26 07:09:19;;;;;;;50.40;20.60;;;;;;;-3.60;100.00;43465.01;1709286;81;21104;-58
2022/01/26 07:11:46;;;;;;;44.83;19.42;;;;;;;-3.51;100.00;41163.20;1710303;81;21540;-58
2022/01/26 07:14:25;;;;;;;44.18;20.68;;;;;;;-3.48;100.00;39846.35;1717466;81;21092;-59
2022/01/26 07:22:14;;;;;;;43.30;20.25;;;;;;;-3.32;100.00;36562.25;1702267;81;21051;-58
2022/01/26 07:24:41;;;;;;;46.60;21.57;;;;;;;-3.25;100.00;34591.04;1684411;81;21623;-58
2022/01/26 07:27:10;;;;;;;46.68;20.27;;;;;;;-3.17;100.00;32621.15;1715171;81;21107;-59
2022/01/26 07:29:37;;;;;;;42.85;19.48;;;;;;;-3.09;100.00;30815.77;1721050;81;21328;-58
2022/01/26 07:32:06;;;;;;;44.35;19.50;;;;;;;-3.02;100.00;29504.18;1717451;81;21543;-57
2022/01/26 07:34:33;;;;;;;43.13;20.27;;;;;;;-3.00;100.00;28354.48;1716984;81;21036;-61
2022/01/26 07:37:05;;;;;;;45.10;20.25;;;;;;;-2.95;100.00;27535.36;1724246;81;21152;-58
2022/01/26 07:39:41;;;;;;;49.77;20.55;;;;;;;-2.88;100.00;26552.98;1722526;81;21501;-58
2022/01/26 07:41:59;;;;;;;44.98;19.80;;;;;;;-2.81;100.00;25570.18;1718422;81;21079;-57
2022/01/26 07:44:27;;;;;;;47.05;20.80;;;;;;;-2.75;100.00;24423.46;1719001;81;21632;-60
2022/01/26 07:46:54;;;;;;;46.63;19.92;;;;;;;-2.67;100.00;22784.75;1719860;81;21577;-60
2022/01/26 07:49:21;;;;;;;47.85;21.17;;;;;;;-2.54;100.00;20984.18;1726021;81;21478;-57
2022/01/26 07:51:50;;;;;;;44.27;20.82;;;;;;;-2.41;100.00;19348.35;1717927;81;21115;-58
2022/01/26 07:54:18;;;;;;;46.10;20.57;;;;;;;-2.29;100.00;18039.97;1719912;81;22218;-59
2022/01/26 07:56:46;;;;;;;42.50;20.43;;;;;;;-2.18;100.00;16567.61;1728369;81;21036;-58
2022/01/26 07:59:14;;;;;;;46.13;21.45;;;;;;;-2.05;100.00;14931.88;1721652;81;22239;-59
2022/01/26 08:01:41;;;;;;;48.42;22.10;;;;;;;-1.90;100.00;12969.18;1722491;81;22150;-58
2022/01/26 08:04:07;;;;;;;44.55;21.93;;;;;;;-1.77;100.00;11169.75;1720321;81;21433;-61
2022/01/26 08:06:36;;;;;;;45.20;22.62;;;;;;;-1.71;100.00;10024.30;1690150;82;21047;-58
2022/01/26 08:09:03;;;;;;;50.50;21.90;;;;;;;-1.63;100.00;9043.35;1680912;83;21142;-61
2022/01/26 08:11:30;;;;;;;47.80;21.42;;;;;;;-1.59;100.00;8061.73;1689067;83;21180;-61
2022/01/26 08:13:58;;;;;;;50.23;23.07;;;;;;;-1.54;100.00;7243.87;1685613;83;21629;-59
2022/01/26 08:16:25;;;;;;;50.28;22.77;;;;;;;-1.51;100.00;6589.70;1686828;83;21535;-59
2022/01/26 08:18:52;;;;;;;47.85;22.55;;;;;;;-1.50;100.00;5935.09;1688225;83;21136;-61
2022/01/26 08:21:20;;;;;;;48.40;22.40;;;;;;;-1.50;100.00;5607.87;1686968;83;21080;-60
2022/01/26 08:23:48;;;;;;;50.25;23.30;;;;;;;-1.51;100.00;5280.44;1689938;83;21040;-59
2022/01/26 08:26:19;;;;;;;50.52;23.15;;;;;;;-1.55;100.00;5279.83;1684914;83;21139;-60
2022/01/26 08:28:54;;;;;;;48.70;23.98;;;;;;;-1.60;100.00;5442.66;1689786;83;22197;-58
2022/01/26 08:31:18;;;;;;;50.10;23.95;;;;;;;-1.59;100.00;5115.61;1681617;83;21092;-63
2022/01/26 08:33:44;;;;;;;48.30;23.02;;;;;;;-1.55;100.00;4788.95;1677189;84;21077;-59
2022/01/26 08:36:12;;;;;;;49.45;23.83;;;;;;;-1.57;100.00;4461.58;1689980;82;21053;-58
2022/01/26 08:38:39;;;;;;;51.83;24.90;;;;;;;-1.58;100.00;4297.88;1690445;83;21957;-60
2022/01/26 08:41:07;;;;;;;50.12;24.85;;;;;;;-1.63;100.00;4460.81;1692422;83;21053;-57
2022/01/26 08:43:34;;;;;;;57.30;25.05;;;;;;;-1.56;100.00;4134.60;1686108;83;21001;-57
2022/01/26 08:46:01;;;;;;;56.15;24.85;;;;;;;-1.53;100.00;3644.29;1687133;83;21096;-60
2022/01/26 08:48:30;;;;;;;55.08;25.43;;;;;;;-1.51;100.00;3154.02;1681470;83;21084;-58
2022/01/26 08:50:58;;;;;;;56.95;26.27;;;;;;;-1.47;100.00;2663.94;1686228;83;21116;-60
2022/01/26 08:53:25;;;;;;;54.10;24.72;;;;;;;-1.41;100.00;2010.48;1690134;83;21120;-60
2022/01/26 08:55:52;;;;;;;52.98;25.30;;;;;;;-1.36;100.00;1357.09;1688204;83;21128;-59
2022/01/26 08:58:20;;;;;;;57.48;24.55;;;;;;;-1.31;100.00;213.32;1692232;83;21066;-60
2022/01/26 09:00:47;;;;;;;56.50;25.50;;;;;;;-1.28;100.00;-276.72;1685470;83;21091;-59
2022/01/26 09:03:14;;;;;;;57.35;26.30;;;;;;;-1.24;100.00;-930.09;1688802;83;21511;-58
2022/01/26 09:05:41;;;;;;;55.80;25.08;;;;;;;-1.25;100.00;-1583.60;1684233;81;21123;-58
2022/01/26 09:08:08;;;;;;;53.02;24.92;;;;;;;-1.26;100.00;-2073.65;1688298;83;21098;-58
2022/01/26 09:10:37;;;;;;;52.62;25.15;;;;;;;-1.23;100.00;-2726.81;1683550;81;21109;-59
2022/01/26 09:13:03;;;;;;;54.90;25.82;;;;;;;-1.11;100.00;-3543.13;1679251;83;21075;-57
2022/01/26 09:15:31;;;;;;;54.58;26.42;;;;;;;-1.00;100.00;-4359.53;1686705;83;21135;-58
2022/01/26 09:18:01;;;;;;;56.08;25.08;;;;;;;-0.93;100.00;-5012.69;1687991;82;21050;-58
2022/01/26 09:20:29;;;;;;;54.42;26.02;;;;;;;-0.88;100.00;-5829.06;1636559;83;21506;-60
2022/01/26 09:22:59;;;;;;;56.45;27.07;;;;;;;-0.85;100.00;-6482.02;1679435;83;21139;-60
2022/01/26 09:25:26;;;;;;;52.43;24.47;;;;;;;-0.84;100.00;-7134.87;1665737;83;21108;-61
2022/01/26 09:27:54;;;;;;;49.18;24.00;;;;;;;-0.81;100.00;-7461.36;1685409;83;21096;-57
2022/01/26 09:30:21;;;;;;;51.05;23.73;;;;;;;-0.75;100.00;-7951.23;1686544;82;21081;-57
2022/01/26 09:32:49;;;;;;;56.35;26.68;;;;;;;-0.68;100.00;-8604.35;1678170;83;21134;-58
2022/01/26 09:35:15;;;;;;;53.75;25.62;;;;;;;-0.61;100.00;-9094.31;1684089;82;21278;-59
2022/01/26 09:37:43;;;;;;;56.48;24.02;;;;;;;-0.52;100.00;-9584.49;1675813;83;21263;-59
2022/01/26 09:40:11;;;;;;;53.00;25.37;;;;;;;-0.48;100.00;-10074.28;1687157;82;21145;-57
2022/01/26 09:42:38;;;;;;;57.88;26.40;;;;;;;-0.45;100.00;-10563.95;1692389;82;21600;-59
2022/01/26 09:45:07;;;;;;;58.85;26.35;;;;;;;-0.40;100.00;-10890.72;1676584;83;21358;-58
2022/01/26 09:47:34;;;;;;;49.18;23.65;;;;;;;-0.36;100.00;-11217.34;1684686;83;21115;-58
2022/01/26 09:50:05;;;;;;;53.63;23.25;;;;;;;-0.33;100.00;-11380.87;1691472;81;21139;-57
2022/01/26 09:52:37;;;;;;;51.92;25.68;;;;;;;-0.30;100.00;-11544.34;1682227;83;21121;-61
2022/01/26 09:55:05;;;;;;;54.95;26.62;;;;;;;-0.26;100.00;-11707.88;1681705;82;21072;-57
2022/01/26 09:57:32;;;;;;;57.95;26.35;;;;;;;-0.22;100.00;-11708.39;1702575;81;21003;-61
2022/01/26 09:59:59;;;;;;;57.15;27.17;;;;;;;-0.19;100.00;-11708.71;1699219;81;21189;-60
2022/01/26 10:02:31;;;;;;;62.38;28.20;;;;;;;-0.14;100.00;-11709.35;1696761;82;21061;-59
2022/01/26 10:05:10;;;;;;;69.80;30.00;;;;;;;-0.10;100.00;-11709.80;1698112;82;21575;-59
2022/01/26 10:08:11;;;;;;;59.18;28.10;;;;;;;-0.10;100.00;-11709.86;1619052;86;21097;-62
2022/01/26 10:15:26;;;;;;;61.85;28.27;;;;;;;-0.07;100.00;-11547.03;1644266;84;21097;-59
2022/01/26 10:16:14;;;;;;;64.10;28.90;;;;;;;-0.12;100.00;-11220.09;1678684;83;22171;-60
2022/01/26 10:18:43;;;;;;;63.75;29.90;;;;;;;-0.18;100.00;-11056.34;1662075;84;22104;-58
2022/01/26 10:21:19;;;;;;;63.15;29.60;;;;;;;-0.17;100.00;-11219.61;1678614;83;20953;-58
2022/01/26 10:23:46;;;;;;;63.33;28.70;;;;;;;-0.13;100.00;-11383.19;1684546;83;21036;-57
2022/01/26 10:26:16;;;;;;;60.88;28.42;;;;;;;-0.10;100.00;-11546.65;1685592;83;21761;-58
2022/01/26 10:29:03;;;;;;;58.25;27.70;;;;;;;-0.11;100.00;-11872.81;1685122;83;21025;-57
2022/01/26 10:31:33;;;;;;;58.35;27.80;;;;;;;-0.12;100.00;-12035.87;1683446;83;22349;-58
2022/01/26 10:34:05;;;;;;;58.45;26.87;;;;;;;-0.18;100.00;-12198.25;1684596;83;21576;-59
2022/01/26 10:36:48;;;;;;;52.10;24.63;;;;;;;-0.25;100.00;-12197.29;1685538;83;21142;-58
2022/01/26 10:39:31;;;;;;;57.80;27.05;;;;;;;-0.23;100.00;-12360.64;1686847;84;21072;-58
2022/01/26 10:42:02;;;;;;;60.17;27.22;;;;;;;-0.21;100.00;-12687.00;1674058;83;21073;-59
2022/01/26 10:44:42;;;;;;;57.88;26.37;;;;;;;-0.21;100.00;-13013.20;1684803;83;21301;-57
2022/01/26 10:47:05;;;;;;;;;;;;;;;-0.19;100.00;-13176.47;1681011;83;21084;-58
2022/01/26 10:54:52;;;;;;;57.83;28.65;;;;;;;-0.17;100.00;-13992.02;1651427;84;21085;-58
2022/01/26 10:57:23;;;;;;;68.42;29.48;;;;;;;-0.17;100.00;-14154.94;1672074;84;21160;-59
2022/01/26 10:59:50;;;;;;;59.27;26.82;;;;;;;-0.15;100.00;-14318.28;1685690;84;21147;-60
2022/01/26 11:02:24;;;;;;;63.02;28.17;;;;;;;-0.13;100.00;-14481.62;1683939;83;21605;-61
2022/01/26 11:04:49;;;;;;;63.98;28.95;;;;;;;-0.09;100.00;-14645.33;1685007;83;21032;-60
2022/01/26 11:07:17;;;;;;;65.60;28.45;;;;;;;-0.05;100.00;-14972.04;1683574;83;21326;-61
2022/01/26 11:09:48;;;;;;;61.42;28.27;;;;;;;0.01;100.00;-15135.95;1685399;83;21985;-61
2022/01/26 11:12:27;;;;;;;67.03;29.12;;;;;;;0.07;100.00;-15300.07;1685382;83;21532;-60
2022/01/26 11:15:11;;;;;;;76.65;32.48;;;;;;;0.11;100.00;-15463.93;1674855;83;21576;-60
2022/01/26 11:17:42;;;;;;;71.40;31.37;;;;;;;0.17;100.00;-15791.01;1684981;83;21039;-60
2022/01/26 11:20:30;;;;;;;68.25;30.45;;;;;;;0.22;100.00;-15791.98;1686769;83;21146;-61
2022/01/26 11:22:55;;;;;;;67.20;29.40;;;;;;;0.27;100.00;-15955.89;1681642;83;21185;-60
2022/01/26 11:25:23;;;;;;;65.55;29.23;;;;;;;0.31;100.00;-15956.59;1682960;83;21053;-60
2022/01/26 11:27:52;;;;;;;63.52;28.27;;;;;;;0.36;100.00;-16120.63;1683273;83;21155;-60
2022/01/26 11:30:27;;;;;;;74.75;28.98;;;;;;;0.39;100.00;-16284.27;1689219;83;21143;-61
2022/01/26 11:33:02;;;;;;;76.15;31.23;;;;;;;0.45;100.00;-16448.54;1688224;83;21489;-60
2022/01/26 11:35:39;;;;;;;74.32;29.72;;;;;;;0.52;100.00;-16776.00;1684136;83;21793;-60
2022/01/26 11:38:11;;;;;;;64.77;30.43;;;;;;;0.61;100.00;-17266.98;1685863;83;21610;-60
2022/01/26 11:46:37;;;;;;;66.87;30.43;;;;;;;0.73;100.00;-17921.88;1685095;83;21041;-60
2022/01/26 11:49:10;;;;;;;59.75;28.38;;;;;;;0.80;100.00;-18249.61;1689075;83;21894;-59
2022/01/26 11:51:55;;;;;;;53.58;27.20;;;;;;;0.82;100.00;-18576.18;1692617;83;20978;-60
2022/01/26 11:54:27;;;;;;;50.83;26.00;;;;;;;0.87;100.00;-18740.19;1691303;83;20918;-60
2022/01/26 11:57:12;;;;;;;55.25;25.80;;;;;;;0.89;100.00;-18903.72;1690883;83;21067;-60
2022/01/26 11:59:43;;;;;;;53.85;25.50;;;;;;;0.92;100.00;-19067.50;1685450;83;20926;-59
2022/01/26 12:02:27;;;;;;;56.83;26.35;;;;;;;0.94;100.00;-19231.17;1680202;83;22496;-61
2022/01/26 12:05:00;;;;;;;58.60;27.40;;;;;;;0.96;100.00;-19394.58;1679559;84;20997;-60
2022/01/26 12:07:27;;;;;;;65.67;29.23;;;;;;;0.97;100.00;-19394.84;1674355;84;21894;-60
2022/01/26 12:09:56;;;;;;;66.33;29.35;;;;;;;0.98;100.00;-19558.26;1674434;83;21128;-60
2022/01/26 12:12:24;;;;;;;68.92;29.67;;;;;;;0.98;100.00;-19558.26;1676378;83;21085;-59
2022/01/26 12:15:09;;;;;;;75.32;29.60;;;;;;;0.98;100.00;-19721.16;1686235;83;21151;-59
2022/01/26 12:18:18;;;;;;;61.15;28.70;;;;;;;1.02;100.00;-19722.07;1670925;83;21283;-60
2022/01/26 12:42:56;;;;;;;64.37;28.92;;;;;;;1.00;100.00;-20047.72;1673627;83;21950;-60
2022/01/26 12:45:07;;;;;;;61.77;27.67;;;;;;;1.04;100.00;-20211.66;1683393;83;21093;-60
2022/01/26 12:47:35;;;;;;;56.58;28.40;;;;;;;1.07;100.00;-20375.62;1683471;83;22102;-57
2022/01/26 12:50:04;;;;;;;59.10;27.27;;;;;;;1.10;100.00;-20539.45;1679638;83;21128;-59
2022/01/26 12:52:31;;;;;;;66.60;30.45;;;;;;;1.13;100.00;-20540.27;1685676;83;21462;-60
2022/01/26 12:54:59;;;;;;;62.40;28.80;;;;;;;1.16;100.00;-20703.84;1684776;83;21198;-60
2022/01/26 12:57:26;;;;;;;58.20;27.05;;;;;;;1.19;100.00;-20704.66;1686227;83;21065;-61
2022/01/26 13:00:05;;;;;;;61.70;28.25;;;;;;;1.22;100.00;-20868.53;1683781;83;21343;-59
2022/01/26 13:02:33;;;;;;;53.45;27.17;;;;;;;1.24;100.00;-20869.08;1678741;84;21159;-60
2022/01/26 13:05:04;;;;;;;64.55;30.35;;;;;;;1.26;100.00;-21032.81;1687657;83;21061;-60
2022/01/26 13:07:31;;;;;;;58.40;28.62;;;;;;;1.26;100.00;-21195.70;1718858;81;22183;-59
2022/01/26 13:09:58;;;;;;;62.55;28.50;;;;;;;1.24;100.00;-21195.13;1719209;81;21076;-58
2022/01/26 13:12:30;;;;;;;61.25;29.18;;;;;;;1.22;100.00;-21194.57;1688600;82;22326;-58
2022/01/26 13:15:21;;;;;;;64.20;28.70;;;;;;;1.21;100.00;-21194.42;1719869;81;21125;-59